sensor_id;sensor_type;location;lat;lon;timestamp;pressure;altitude;pressure_sealevel;temperature;humidity
10948;BME280;5526;42.070;24.752;2022-07-10T00:01:46;98612.50;;;21.06;73.25
10948;BME280;5526;42.070;24.752;2022-07-10T00:04:13;98610.16;;;21.04;73.37
10948;BME280;5526;42.070;24.752;2022-07-10T00:06:40;98621.06;;;21.11;73.08
10948;BME280;5526;42.070;24.752;2022-07-10T00:09:08;98621.28;;;21.06;73.25
10948;BME280;5526;42.070;24.752;2022-07-10T00:11:35;98613.41;;;21.10;73.03
10948;BME280;5526;42.070;24.752;2022-07-10T00:14:02;98618.75;;;21.10;73.19
10948;BME280;5526;42.070;24.752;2022-07-10T00:16:29;98619.72;;;21.05;73.34
10948;BME280;5526;42.070;24.752;2022-07-10T00:18:57;98614.81;;;21.07;73.55
10948;BME280;5526;42.070;24.752;2022-07-10T00:21:24;98612.59;;;21.09;73.57
10948;BME280;5526;42.070;24.752;2022-07-10T00:23:51;98613.25;;;21.06;73.55
10948;BME280;5526;42.070;24.752;2022-07-10T00:26:18;98609.34;;;21.04;73.37
10948;BME280;5526;42.070;24.752;2022-07-10T00:28:45;98600.22;;;21.05;73.37
10948;BME280;5526;42.070;24.752;2022-07-10T00:31:12;98593.19;;;21.00;73.44
10948;BME280;5526;42.070;24.752;2022-07-10T00:33:39;98579.91;;;21.04;73.33
10948;BME280;5526;42.070;24.752;2022-07-10T00:36:08;98588.59;;;21.01;73.39
10948;BME280;5526;42.070;24.752;2022-07-10T00:38:35;98597.75;;;21.00;73.42
10948;BME280;5526;42.070;24.752;2022-07-10T00:41:02;98585.03;;;20.97;73.03
10948;BME280;5526;42.070;24.752;2022-07-10T00:43:29;98591.75;;;21.03;73.29
10948;BME280;5526;42.070;24.752;2022-07-10T00:45:56;98596.06;;;20.95;73.36
10948;BME280;5526;42.070;24.752;2022-07-10T00:48:23;98585.81;;;20.97;73.45
10948;BME280;5526;42.070;24.752;2022-07-10T00:50:50;98592.94;;;20.93;73.30
10948;BME280;5526;42.070;24.752;2022-07-10T00:53:19;98585.81;;;20.97;73.23
10948;BME280;5526;42.070;24.752;2022-07-10T00:55:46;98590.69;;;20.95;73.01
10948;BME280;5526;42.070;24.752;2022-07-10T00:58:13;98585.25;;;20.92;72.88
10948;BME280;5526;42.070;24.752;2022-07-10T01:00:40;98578.63;;;20.89;73.07
10948;BME280;5526;42.070;24.752;2022-07-10T01:03:08;98578.91;;;20.96;72.99
10948;BME280;5526;42.070;24.752;2022-07-10T01:05:36;98574.00;;;20.98;72.72
10948;BME280;5526;42.070;24.752;2022-07-10T01:08:04;98579.91;;;20.92;72.83
10948;BME280;5526;42.070;24.752;2022-07-10T01:10:32;98570.41;;;20.94;72.33
10948;BME280;5526;42.070;24.752;2022-07-10T01:12:59;98568.25;;;20.88;72.07
10948;BME280;5526;42.070;24.752;2022-07-10T01:15:27;98578.44;;;20.94;72.13
10948;BME280;5526;42.070;24.752;2022-07-10T01:17:54;98584.13;;;20.93;72.21
10948;BME280;5526;42.070;24.752;2022-07-10T01:20:30;98565.53;;;20.96;71.93
10948;BME280;5526;42.070;24.752;2022-07-10T01:22:58;98572.78;;;20.96;71.93
10948;BME280;5526;42.070;24.752;2022-07-10T01:25:25;98562.06;;;20.96;72.19
10948;BME280;5526;42.070;24.752;2022-07-10T01:27:52;98565.53;;;20.96;72.10
10948;BME280;5526;42.070;24.752;2022-07-10T01:30:19;98565.06;;;20.94;72.02
10948;BME280;5526;42.070;24.752;2022-07-10T01:32:47;98562.38;;;20.94;72.06
10948;BME280;5526;42.070;24.752;2022-07-10T01:35:15;98561.75;;;20.97;71.81
10948;BME280;5526;42.070;24.752;2022-07-10T01:37:42;98567.13;;;20.88;71.43
10948;BME280;5526;42.070;24.752;2022-07-10T01:40:11;98560.28;;;21.00;71.47
10948;BME280;5526;42.070;24.752;2022-07-10T01:42:38;98543.06;;;20.88;71.69
10948;BME280;5526;42.070;24.752;2022-07-10T01:45:07;98551.03;;;20.97;71.62
10948;BME280;5526;42.070;24.752;2022-07-10T01:47:34;98552.50;;;21.07;71.48
10948;BME280;5526;42.070;24.752;2022-07-10T01:50:03;98539.88;;;21.07;71.24
10948;BME280;5526;42.070;24.752;2022-07-10T01:52:30;98537.91;;;21.04;71.25
10948;BME280;5526;42.070;24.752;2022-07-10T01:54:57;98543.25;;;21.04;71.14
10948;BME280;5526;42.070;24.752;2022-07-10T01:57:25;98543.69;;;21.06;71.22
10948;BME280;5526;42.070;24.752;2022-07-10T01:59:52;98545.78;;;21.01;71.13
10948;BME280;5526;42.070;24.752;2022-07-10T02:02:19;98531.75;;;21.04;71.21
10948;BME280;5526;42.070;24.752;2022-07-10T02:04:47;98540.34;;;20.97;70.74
10948;BME280;5526;42.070;24.752;2022-07-10T02:07:14;98532.19;;;20.94;71.36
10948;BME280;5526;42.070;24.752;2022-07-10T02:09:42;98534.97;;;20.97;71.45
10948;BME280;5526;42.070;24.752;2022-07-10T02:12:11;98533.91;;;20.89;71.39
10948;BME280;5526;42.070;24.752;2022-07-10T02:14:40;98521.88;;;20.83;71.82
10948;BME280;5526;42.070;24.752;2022-07-10T02:17:07;98529.34;;;20.90;71.78
10948;BME280;5526;42.070;24.752;2022-07-10T02:19:34;98526.44;;;20.83;71.84
10948;BME280;5526;42.070;24.752;2022-07-10T02:22:02;98522.09;;;20.78;72.07
10948;BME280;5526;42.070;24.752;2022-07-10T02:24:29;98527.44;;;20.78;72.00
10948;BME280;5526;42.070;24.752;2022-07-10T02:26:56;98533.78;;;20.74;72.31
10948;BME280;5526;42.070;24.752;2022-07-10T02:29:23;98539.59;;;20.76;72.30
10948;BME280;5526;42.070;24.752;2022-07-10T02:31:51;98538.22;;;20.70;72.60
10948;BME280;5526;42.070;24.752;2022-07-10T02:34:18;98540.88;;;20.58;73.00
10948;BME280;5526;42.070;24.752;2022-07-10T02:36:45;98537.59;;;20.52;73.42
10948;BME280;5526;42.070;24.752;2022-07-10T02:39:12;98538.00;;;20.42;74.02
10948;BME280;5526;42.070;24.752;2022-07-10T02:41:39;98552.44;;;20.29;74.43
10948;BME280;5526;42.070;24.752;2022-07-10T02:44:06;98549.97;;;20.24;74.77
10948;BME280;5526;42.070;24.752;2022-07-10T02:46:33;98545.47;;;20.37;74.41
10948;BME280;5526;42.070;24.752;2022-07-10T02:49:02;98544.16;;;20.22;75.24
10948;BME280;5526;42.070;24.752;2022-07-10T02:51:30;98547.94;;;20.21;75.59
10948;BME280;5526;42.070;24.752;2022-07-10T02:53:57;98551.25;;;20.18;75.67
10948;BME280;5526;42.070;24.752;2022-07-10T02:56:24;98553.28;;;20.21;75.37
10948;BME280;5526;42.070;24.752;2022-07-10T02:58:51;98549.16;;;20.24;75.26
10948;BME280;5526;42.070;24.752;2022-07-10T03:01:18;98550.09;;;20.28;75.31
10948;BME280;5526;42.070;24.752;2022-07-10T03:03:45;98548.31;;;20.32;75.32
10948;BME280;5526;42.070;24.752;2022-07-10T03:06:14;98551.91;;;20.36;75.16
10948;BME280;5526;42.070;24.752;2022-07-10T03:08:41;98551.13;;;20.35;75.53
10948;BME280;5526;42.070;24.752;2022-07-10T03:11:08;98549.81;;;20.41;75.47
10948;BME280;5526;42.070;24.752;2022-07-10T03:13:35;98566.31;;;20.43;75.55
10948;BME280;5526;42.070;24.752;2022-07-10T03:16:02;98559.75;;;20.41;75.74
10948;BME280;5526;42.070;24.752;2022-07-10T03:18:29;98562.31;;;20.49;75.42
10948;BME280;5526;42.070;24.752;2022-07-10T03:20:56;98556.22;;;20.49;75.34
10948;BME280;5526;42.070;24.752;2022-07-10T03:23:25;98563.56;;;20.52;75.37
10948;BME280;5526;42.070;24.752;2022-07-10T03:25:52;98560.56;;;20.53;75.24
10948;BME280;5526;42.070;24.752;2022-07-10T03:28:19;98560.22;;;20.55;74.99
10948;BME280;5526;42.070;24.752;2022-07-10T03:30:46;98561.69;;;20.52;75.35
10948;BME280;5526;42.070;24.752;2022-07-10T03:33:13;98562.00;;;20.51;75.52
10948;BME280;5526;42.070;24.752;2022-07-10T03:35:40;98553.66;;;20.52;75.67
10948;BME280;5526;42.070;24.752;2022-07-10T03:38:07;98547.50;;;20.52;75.64
10948;BME280;5526;42.070;24.752;2022-07-10T03:40:35;98540.59;;;20.51;75.46
10948;BME280;5526;42.070;24.752;2022-07-10T03:43:02;98542.63;;;20.54;75.26
10948;BME280;5526;42.070;24.752;2022-07-10T03:45:29;98538.19;;;20.58;75.15
10948;BME280;5526;42.070;24.752;2022-07-10T03:47:56;98537.88;;;20.59;75.46
10948;BME280;5526;42.070;24.752;2022-07-10T03:50:23;98540.53;;;20.59;75.89
10948;BME280;5526;42.070;24.752;2022-07-10T03:52:50;98531.47;;;20.52;76.16
10948;BME280;5526;42.070;24.752;2022-07-10T03:55:17;98533.97;;;20.57;76.04
10948;BME280;5526;42.070;24.752;2022-07-10T03:57:46;98528.34;;;20.50;76.43
10948;BME280;5526;42.070;24.752;2022-07-10T04:00:23;98518.69;;;20.57;76.15
10948;BME280;5526;42.070;24.752;2022-07-10T04:02:56;98521.25;;;20.54;76.26
10948;BME280;5526;42.070;24.752;2022-07-10T04:05:24;98513.81;;;20.59;76.26
10948;BME280;5526;42.070;24.752;2022-07-10T04:07:51;98518.59;;;20.66;76.04
10948;BME280;5526;42.070;24.752;2022-07-10T04:10:19;98512.47;;;20.65;76.23
10948;BME280;5526;42.070;24.752;2022-07-10T04:12:47;98511.56;;;20.61;76.64
10948;BME280;5526;42.070;24.752;2022-07-10T04:15:14;98511.50;;;20.82;76.24
10948;BME280;5526;42.070;24.752;2022-07-10T04:17:42;98517.06;;;21.10;75.25
10948;BME280;5526;42.070;24.752;2022-07-10T04:20:10;98521.31;;;21.35;74.56
10948;BME280;5526;42.070;24.752;2022-07-10T04:22:37;98508.16;;;21.42;73.94
10948;BME280;5526;42.070;24.752;2022-07-10T04:25:05;98507.00;;;21.55;73.86
10948;BME280;5526;42.070;24.752;2022-07-10T04:27:32;98511.69;;;21.82;73.13
10948;BME280;5526;42.070;24.752;2022-07-10T04:30:01;98502.06;;;21.93;72.54
10948;BME280;5526;42.070;24.752;2022-07-10T04:32:28;98508.19;;;22.05;71.64
10948;BME280;5526;42.070;24.752;2022-07-10T04:34:55;98507.16;;;22.10;71.26
10948;BME280;5526;42.070;24.752;2022-07-10T04:37:22;98515.81;;;22.19;71.45
10948;BME280;5526;42.070;24.752;2022-07-10T04:39:49;98518.66;;;22.38;70.86
10948;BME280;5526;42.070;24.752;2022-07-10T04:42:16;98519.53;;;22.42;70.78
10948;BME280;5526;42.070;24.752;2022-07-10T04:44:43;98532.50;;;22.52;70.59
10948;BME280;5526;42.070;24.752;2022-07-10T04:47:11;98531.66;;;22.63;69.46
10948;BME280;5526;42.070;24.752;2022-07-10T04:49:39;98540.22;;;22.69;69.88
10948;BME280;5526;42.070;24.752;2022-07-10T04:52:06;98540.22;;;22.69;70.00
10948;BME280;5526;42.070;24.752;2022-07-10T04:54:33;98550.56;;;22.82;69.20
10948;BME280;5526;42.070;24.752;2022-07-10T04:57:00;98538.59;;;22.64;69.75
10948;BME280;5526;42.070;24.752;2022-07-10T04:59:27;98539.63;;;22.75;69.16
10948;BME280;5526;42.070;24.752;2022-07-10T05:01:54;98546.94;;;22.75;68.55
10948;BME280;5526;42.070;24.752;2022-07-10T05:04:22;98544.06;;;22.83;69.10
10948;BME280;5526;42.070;24.752;2022-07-10T05:06:49;98548.28;;;22.69;69.49
10948;BME280;5526;42.070;24.752;2022-07-10T05:09:16;98546.06;;;22.71;69.78
10948;BME280;5526;42.070;24.752;2022-07-10T05:11:45;98535.06;;;22.76;69.06
10948;BME280;5526;42.070;24.752;2022-07-10T05:14:12;98547.72;;;22.48;70.19
10948;BME280;5526;42.070;24.752;2022-07-10T05:16:39;98540.16;;;22.26;70.37
10948;BME280;5526;42.070;24.752;2022-07-10T05:19:06;98540.09;;;22.10;71.06
10948;BME280;5526;42.070;24.752;2022-07-10T05:21:34;98546.34;;;22.14;70.83
10948;BME280;5526;42.070;24.752;2022-07-10T05:24:01;98556.66;;;21.88;71.95
10948;BME280;5526;42.070;24.752;2022-07-10T05:26:28;98552.53;;;21.91;71.40
10948;BME280;5526;42.070;24.752;2022-07-10T05:28:55;98552.31;;;22.35;70.00
10948;BME280;5526;42.070;24.752;2022-07-10T05:31:23;98566.63;;;22.67;68.87
10948;BME280;5526;42.070;24.752;2022-07-10T05:33:49;98577.09;;;22.56;68.82
10948;BME280;5526;42.070;24.752;2022-07-10T05:36:16;98571.38;;;23.01;68.20
10948;BME280;5526;42.070;24.752;2022-07-10T05:38:45;98569.13;;;23.18;67.40
10948;BME280;5526;42.070;24.752;2022-07-10T05:41:12;98568.66;;;23.28;66.76
10948;BME280;5526;42.070;24.752;2022-07-10T05:43:39;98571.47;;;23.04;67.75
10948;BME280;5526;42.070;24.752;2022-07-10T05:46:06;98565.28;;;23.31;66.95
10948;BME280;5526;42.070;24.752;2022-07-10T05:48:33;98569.25;;;23.53;66.35
10948;BME280;5526;42.070;24.752;2022-07-10T05:51:04;98567.97;;;23.62;66.00
10948;BME280;5526;42.070;24.752;2022-07-10T05:53:31;98566.81;;;23.63;65.33
10948;BME280;5526;42.070;24.752;2022-07-10T05:56:01;98551.72;;;23.74;64.78
10948;BME280;5526;42.070;24.752;2022-07-10T05:58:28;98559.53;;;24.33;64.48
10948;BME280;5526;42.070;24.752;2022-07-10T06:00:56;98559.56;;;24.71;63.98
10948;BME280;5526;42.070;24.752;2022-07-10T06:03:23;98564.28;;;24.97;63.36
10948;BME280;5526;42.070;24.752;2022-07-10T06:05:50;98556.84;;;24.90;62.94
10948;BME280;5526;42.070;24.752;2022-07-10T06:08:17;98560.75;;;24.93;62.47
10948;BME280;5526;42.070;24.752;2022-07-10T06:10:44;98559.88;;;25.30;61.76
10948;BME280;5526;42.070;24.752;2022-07-10T06:13:13;98557.06;;;25.46;61.22
10948;BME280;5526;42.070;24.752;2022-07-10T06:15:40;98555.28;;;25.79;60.24
10948;BME280;5526;42.070;24.752;2022-07-10T06:18:07;98561.09;;;26.07;59.00
10948;BME280;5526;42.070;24.752;2022-07-10T06:20:34;98558.41;;;25.59;59.41
10948;BME280;5526;42.070;24.752;2022-07-10T06:23:01;98551.69;;;25.46;60.45
10948;BME280;5526;42.070;24.752;2022-07-10T06:25:28;98560.41;;;25.17;61.23
10948;BME280;5526;42.070;24.752;2022-07-10T06:27:55;98551.13;;;25.37;60.94
10948;BME280;5526;42.070;24.752;2022-07-10T06:30:24;98556.50;;;25.14;60.26
10948;BME280;5526;42.070;24.752;2022-07-10T06:32:51;98548.25;;;25.26;60.71
10948;BME280;5526;42.070;24.752;2022-07-10T06:35:18;98548.75;;;25.32;61.14
10948;BME280;5526;42.070;24.752;2022-07-10T06:37:45;98553.69;;;25.30;60.90
10948;BME280;5526;42.070;24.752;2022-07-10T06:40:12;98552.69;;;25.38;61.13
10948;BME280;5526;42.070;24.752;2022-07-10T06:42:40;98547.69;;;25.36;61.73
10948;BME280;5526;42.070;24.752;2022-07-10T06:45:08;98557.06;;;25.46;61.21
10948;BME280;5526;42.070;24.752;2022-07-10T06:47:36;98553.56;;;25.23;60.72
10948;BME280;5526;42.070;24.752;2022-07-10T06:50:21;98563.38;;;25.31;61.45
10948;BME280;5526;42.070;24.752;2022-07-10T06:52:49;98565.34;;;24.73;62.46
10948;BME280;5526;42.070;24.752;2022-07-10T06:55:18;98574.78;;;24.83;62.53
10948;BME280;5526;42.070;24.752;2022-07-10T06:57:45;98569.59;;;24.93;61.81
10948;BME280;5526;42.070;24.752;2022-07-10T07:00:13;98566.81;;;25.31;61.46
10948;BME280;5526;42.070;24.752;2022-07-10T07:02:42;98566.56;;;25.17;61.94
10948;BME280;5526;42.070;24.752;2022-07-10T07:05:10;98562.16;;;24.87;62.67
10948;BME280;5526;42.070;24.752;2022-07-10T07:07:37;98565.47;;;24.99;62.14
10948;BME280;5526;42.070;24.752;2022-07-10T07:10:05;98563.78;;;25.14;62.58
10948;BME280;5526;42.070;24.752;2022-07-10T07:12:33;98563.84;;;25.36;62.31
10948;BME280;5526;42.070;24.752;2022-07-10T07:15:00;98564.84;;;24.87;63.22
10948;BME280;5526;42.070;24.752;2022-07-10T07:17:27;98552.97;;;24.49;64.94
10948;BME280;5526;42.070;24.752;2022-07-10T07:20:01;98554.53;;;25.11;64.73
10948;BME280;5526;42.070;24.752;2022-07-10T07:22:46;98560.06;;;24.77;63.96
10948;BME280;5526;42.070;24.752;2022-07-10T07:25:31;98548.41;;;24.92;64.20
10948;BME280;5526;42.070;24.752;2022-07-10T07:27:58;98560.75;;;24.93;64.60
10948;BME280;5526;42.070;24.752;2022-07-10T07:30:25;98551.22;;;25.40;63.64
10948;BME280;5526;42.070;24.752;2022-07-10T07:32:52;98550.78;;;25.90;62.89
10948;BME280;5526;42.070;24.752;2022-07-10T07:35:20;98551.78;;;25.53;62.66
10948;BME280;5526;42.070;24.752;2022-07-10T07:37:49;98554.38;;;25.72;61.89
10948;BME280;5526;42.070;24.752;2022-07-10T07:40:18;98556.50;;;25.85;60.58
10948;BME280;5526;42.070;24.752;2022-07-10T07:42:47;98549.34;;;26.22;60.70
10948;BME280;5526;42.070;24.752;2022-07-10T07:45:14;98554.63;;;25.89;61.51
10948;BME280;5526;42.070;24.752;2022-07-10T07:47:45;98552.06;;;25.96;60.20
10948;BME280;5526;42.070;24.752;2022-07-10T07:50:13;98546.19;;;25.91;60.86
10948;BME280;5526;42.070;24.752;2022-07-10T07:52:42;98553.38;;;26.39;59.26
10948;BME280;5526;42.070;24.752;2022-07-10T07:55:09;98558.09;;;26.16;59.87
10948;BME280;5526;42.070;24.752;2022-07-10T07:57:37;98554.03;;;26.58;58.83
10948;BME280;5526;42.070;24.752;2022-07-10T08:00:06;98554.38;;;26.57;58.68
10948;BME280;5526;42.070;24.752;2022-07-10T08:02:33;98568.34;;;26.03;60.48
10948;BME280;5526;42.070;24.752;2022-07-10T08:05:01;98554.03;;;26.29;60.49
10948;BME280;5526;42.070;24.752;2022-07-10T08:07:34;98558.78;;;26.09;60.39
10948;BME280;5526;42.070;24.752;2022-07-10T08:10:03;98567.69;;;25.61;61.12
10948;BME280;5526;42.070;24.752;2022-07-10T08:12:31;98567.28;;;25.37;62.02
10948;BME280;5526;42.070;24.752;2022-07-10T08:14:58;98566.19;;;25.90;62.11
10948;BME280;5526;42.070;24.752;2022-07-10T08:17:25;98560.41;;;25.39;62.94
10948;BME280;5526;42.070;24.752;2022-07-10T08:19:53;98558.84;;;25.87;62.06
10948;BME280;5526;42.070;24.752;2022-07-10T08:22:20;98560.91;;;25.71;61.74
10948;BME280;5526;42.070;24.752;2022-07-10T08:24:47;98562.94;;;25.77;60.98
10948;BME280;5526;42.070;24.752;2022-07-10T08:27:15;98565.81;;;26.47;59.50
10948;BME280;5526;42.070;24.752;2022-07-10T08:29:42;98563.69;;;26.30;60.46
10948;BME280;5526;42.070;24.752;2022-07-10T08:32:09;98564.88;;;26.62;59.85
10948;BME280;5526;42.070;24.752;2022-07-10T08:34:36;98568.31;;;26.95;58.87
10948;BME280;5526;42.070;24.752;2022-07-10T08:37:04;98561.78;;;26.96;58.08
10948;BME280;5526;42.070;24.752;2022-07-10T08:39:31;98556.47;;;26.70;58.73
10948;BME280;5526;42.070;24.752;2022-07-10T08:41:59;98555.50;;;26.85;58.78
10948;BME280;5526;42.070;24.752;2022-07-10T08:44:28;98561.03;;;27.86;56.32
10948;BME280;5526;42.070;24.752;2022-07-10T08:46:56;98563.66;;;27.79;55.75
10948;BME280;5526;42.070;24.752;2022-07-10T08:49:27;98559.06;;;27.87;55.96
10948;BME280;5526;42.070;24.752;2022-07-10T08:51:58;98569.94;;;27.94;54.30
10948;BME280;5526;42.070;24.752;2022-07-10T08:54:29;98559.59;;;27.52;54.75
10948;BME280;5526;42.070;24.752;2022-07-10T08:56:58;98568.53;;;27.16;54.53
10948;BME280;5526;42.070;24.752;2022-07-10T08:59:27;98564.94;;;27.45;53.56
10948;BME280;5526;42.070;24.752;2022-07-10T09:01:57;98561.13;;;28.04;51.92
10948;BME280;5526;42.070;24.752;2022-07-10T09:04:25;98559.69;;;28.24;50.36
10948;BME280;5526;42.070;24.752;2022-07-10T09:06:54;98567.75;;;28.17;48.77
10948;BME280;5526;42.070;24.752;2022-07-10T09:09:22;98557.97;;;28.88;47.29
10948;BME280;5526;42.070;24.752;2022-07-10T09:11:55;98567.91;;;28.42;46.30
10948;BME280;5526;42.070;24.752;2022-07-10T09:14:23;98558.06;;;28.13;48.57
10948;BME280;5526;42.070;24.752;2022-07-10T09:16:54;98558.84;;;29.13;47.25
10948;BME280;5526;42.070;24.752;2022-07-10T09:19:22;98561.13;;;29.04;47.81
10948;BME280;5526;42.070;24.752;2022-07-10T09:21:52;98570.84;;;29.57;45.75
10948;BME280;5526;42.070;24.752;2022-07-10T09:24:20;98562.19;;;28.68;47.67
10948;BME280;5526;42.070;24.752;2022-07-10T09:26:59;98563.38;;;28.88;46.07
10948;BME280;5526;42.070;24.752;2022-07-10T09:29:29;98568.69;;;28.49;47.59
10948;BME280;5526;42.070;24.752;2022-07-10T09:31:58;98567.44;;;28.33;48.17
10948;BME280;5526;42.070;24.752;2022-07-10T09:34:37;98571.06;;;28.61;47.72
10948;BME280;5526;42.070;24.752;2022-07-10T09:37:18;98570.34;;;28.85;45.19
10948;BME280;5526;42.070;24.752;2022-07-10T09:39:51;98569.31;;;28.18;46.75
10948;BME280;5526;42.070;24.752;2022-07-10T09:42:30;98560.56;;;27.81;47.25
10948;BME280;5526;42.070;24.752;2022-07-10T09:45:17;98570.63;;;28.42;47.63
10948;BME280;5526;42.070;24.752;2022-07-10T09:47:53;98567.91;;;28.45;46.47
10948;BME280;5526;42.070;24.752;2022-07-10T09:50:23;98565.75;;;28.03;47.24
10948;BME280;5526;42.070;24.752;2022-07-10T09:52:52;98570.28;;;27.85;47.88
10948;BME280;5526;42.070;24.752;2022-07-10T09:55:21;98560.03;;;27.58;49.26
10948;BME280;5526;42.070;24.752;2022-07-10T09:57:56;98565.00;;;28.10;48.38
10948;BME280;5526;42.070;24.752;2022-07-10T10:00:24;98565.81;;;28.11;48.37
10948;BME280;5526;42.070;24.752;2022-07-10T10:02:58;98573.88;;;27.53;49.43
10948;BME280;5526;42.070;24.752;2022-07-10T10:05:36;98572.97;;;27.82;50.77
10948;BME280;5526;42.070;24.752;2022-07-10T10:08:10;98571.28;;;27.63;50.22
10948;BME280;5526;42.070;24.752;2022-07-10T10:10:43;98572.50;;;27.76;50.35
10948;BME280;5526;42.070;24.752;2022-07-10T10:13:11;98565.66;;;27.39;51.39
10948;BME280;5526;42.070;24.752;2022-07-10T10:15:39;98562.50;;;27.30;50.85
10948;BME280;5526;42.070;24.752;2022-07-10T10:18:08;98568.56;;;26.83;52.46
10948;BME280;5526;42.070;24.752;2022-07-10T10:20:37;98568.72;;;26.61;54.77
10948;BME280;5526;42.070;24.752;2022-07-10T10:23:04;98560.91;;;26.85;52.90
10948;BME280;5526;42.070;24.752;2022-07-10T10:25:32;98559.97;;;27.11;52.85
10948;BME280;5526;42.070;24.752;2022-07-10T10:28:01;98559.91;;;27.04;52.90
10948;BME280;5526;42.070;24.752;2022-07-10T10:30:29;98549.53;;;26.69;53.67
10948;BME280;5526;42.070;24.752;2022-07-10T10:32:57;98556.69;;;26.91;52.92
10948;BME280;5526;42.070;24.752;2022-07-10T10:35:45;98546.69;;;26.95;51.71
10948;BME280;5526;42.070;24.752;2022-07-10T10:38:13;98550.34;;;26.73;53.05
10948;BME280;5526;42.070;24.752;2022-07-10T10:40:41;98550.28;;;26.70;52.34
10948;BME280;5526;42.070;24.752;2022-07-10T10:43:18;98546.16;;;27.63;49.64
10948;BME280;5526;42.070;24.752;2022-07-10T10:45:46;98540.56;;;27.92;50.14
10948;BME280;5526;42.070;24.752;2022-07-10T10:48:14;98542.72;;;27.69;50.48
10948;BME280;5526;42.070;24.752;2022-07-10T10:50:42;98540.00;;;28.34;49.09
10948;BME280;5526;42.070;24.752;2022-07-10T10:53:14;98538.59;;;28.68;47.91
10948;BME280;5526;42.070;24.752;2022-07-10T10:58:47;98533.28;;;29.66;44.48
10948;BME280;5526;42.070;24.752;2022-07-10T11:01:24;98535.91;;;30.01;43.96
10948;BME280;5526;42.070;24.752;2022-07-10T11:04:13;98531.72;;;29.02;43.65
10948;BME280;5526;42.070;24.752;2022-07-10T11:06:40;98527.47;;;29.29;44.29
10948;BME280;5526;42.070;24.752;2022-07-10T11:09:26;98520.47;;;29.63;42.94
10948;BME280;5526;42.070;24.752;2022-07-10T11:12:03;98532.09;;;29.22;42.94
10948;BME280;5526;42.070;24.752;2022-07-10T11:14:32;98519.25;;;28.73;41.27
10948;BME280;5526;42.070;24.752;2022-07-10T11:17:00;98519.63;;;28.82;41.62
10948;BME280;5526;42.070;24.752;2022-07-10T11:19:28;98516.97;;;29.70;39.56
10948;BME280;5526;42.070;24.752;2022-07-10T11:22:11;98514.56;;;30.07;38.42
10948;BME280;5526;42.070;24.752;2022-07-10T11:24:49;98516.09;;;30.11;36.67
10948;BME280;5526;42.070;24.752;2022-07-10T11:27:42;98508.47;;;29.47;36.99
10948;BME280;5526;42.070;24.752;2022-07-10T11:30:17;98499.97;;;29.62;38.96
10948;BME280;5526;42.070;24.752;2022-07-10T11:32:44;98503.00;;;29.85;37.71
10948;BME280;5526;42.070;24.752;2022-07-10T11:35:12;98499.53;;;29.78;38.01
10948;BME280;5526;42.070;24.752;2022-07-10T11:37:48;98493.63;;;30.14;37.03
10948;BME280;5526;42.070;24.752;2022-07-10T11:40:19;98498.75;;;30.74;38.09
10948;BME280;5526;42.070;24.752;2022-07-10T11:42:51;98498.25;;;30.93;37.54
10948;BME280;5526;42.070;24.752;2022-07-10T11:45:26;98486.06;;;31.11;37.07
10948;BME280;5526;42.070;24.752;2022-07-10T11:47:54;98496.69;;;31.43;37.24
10948;BME280;5526;42.070;24.752;2022-07-10T11:50:22;98484.97;;;31.49;36.89
10948;BME280;5526;42.070;24.752;2022-07-10T11:52:49;98488.06;;;32.22;35.21
10948;BME280;5526;42.070;24.752;2022-07-10T11:55:19;98495.94;;;30.91;33.91
10948;BME280;5526;42.070;24.752;2022-07-10T11:57:46;98497.56;;;29.92;36.27
10948;BME280;5526;42.070;24.752;2022-07-10T12:00:22;98480.09;;;30.79;35.40
10948;BME280;5526;42.070;24.752;2022-07-10T12:02:50;98489.59;;;30.47;35.00
10948;BME280;5526;42.070;24.752;2022-07-10T12:05:33;98483.41;;;31.04;34.21
10948;BME280;5526;42.070;24.752;2022-07-10T12:08:01;98482.53;;;31.58;34.42
10948;BME280;5526;42.070;24.752;2022-07-10T12:10:31;98473.53;;;31.65;34.39
10948;BME280;5526;42.070;24.752;2022-07-10T12:13:05;98474.03;;;31.94;33.41
10948;BME280;5526;42.070;24.752;2022-07-10T12:15:34;98468.09;;;31.65;33.92
10948;BME280;5526;42.070;24.752;2022-07-10T12:18:03;98464.75;;;31.50;33.91
10948;BME280;5526;42.070;24.752;2022-07-10T12:20:30;98460.72;;;31.99;33.50
10948;BME280;5526;42.070;24.752;2022-07-10T12:22:58;98457.50;;;31.78;33.34
10948;BME280;5526;42.070;24.752;2022-07-10T12:25:25;98453.97;;;31.81;33.42
10948;BME280;5526;42.070;24.752;2022-07-10T12:27:56;98451.41;;;32.30;32.02
10948;BME280;5526;42.070;24.752;2022-07-10T12:30:36;98464.75;;;32.78;32.00
10948;BME280;5526;42.070;24.752;2022-07-10T12:33:10;98463.84;;;33.34;32.26
10948;BME280;5526;42.070;24.752;2022-07-10T12:35:49;98456.75;;;33.79;30.25
10948;BME280;5526;42.070;24.752;2022-07-10T12:38:18;98455.97;;;33.59;31.76
10948;BME280;5526;42.070;24.752;2022-07-10T12:40:45;98454.28;;;33.45;31.34
10948;BME280;5526;42.070;24.752;2022-07-10T12:43:24;98431.28;;;33.66;31.01
10948;BME280;5526;42.070;24.752;2022-07-10T12:46:13;98439.38;;;33.69;30.60
10948;BME280;5526;42.070;24.752;2022-07-10T12:48:42;98431.47;;;33.36;31.24
10948;BME280;5526;42.070;24.752;2022-07-10T12:51:23;98432.38;;;32.80;30.68
10948;BME280;5526;42.070;24.752;2022-07-10T12:53:50;98431.19;;;33.07;31.27
10948;BME280;5526;42.070;24.752;2022-07-10T12:56:30;98427.25;;;32.59;31.11
10948;BME280;5526;42.070;24.752;2022-07-10T12:59:00;98431.63;;;32.53;31.60
10948;BME280;5526;42.070;24.752;2022-07-10T13:01:28;98427.56;;;32.64;32.01
10948;BME280;5526;42.070;24.752;2022-07-10T13:04:00;98436.44;;;32.95;30.88
10948;BME280;5526;42.070;24.752;2022-07-10T13:06:28;98425.66;;;32.88;30.62
10948;BME280;5526;42.070;24.752;2022-07-10T13:08:56;98427.00;;;33.22;30.70
10948;BME280;5526;42.070;24.752;2022-07-10T13:11:23;98435.25;;;32.96;30.67
10948;BME280;5526;42.070;24.752;2022-07-10T13:13:51;98429.31;;;32.78;31.87